Emery, Iowa
Current Conditions -  °F | °C
As of 2:14 PM on Sunday 23 Nov 2014 (Local Time) from KMCW Reporting Station
Haze Haze  
Wind Chill: 50°   Ceiling: 400
Heat Index: 50°   Visibility: 1.2mi
Dew Point: 50°   Wind: 3mph
Humidity: 100%   Direction: 180°S
Pressure: 29.36"   Gusts: NA
Location:  43.1451°N, 93.1385°W
Report Text: KMCW 232014Z AUTO 18003KT 1 1/4SM BR OVC004 10/10 A2936 RMK AO2 T01000100
Loading
Personal Weather Stations






























Interactive Weather Map New forecast layout! Learn more

10-Day Weather Forecast

Advertisements
Track Severe Weather on mobile